< Typhoon 199123 1991 Season Typhoon 199125 >
Typhoon 199124 (SETH)
General InformationTrack Information on Google MapsDetailed Wind InformationList of All Images || Disaster Info.ResourceGoogle EarthGE AnimationAtom FeedGeoJSON
Detalied Best Track (Time Zone = UTC)
Year Month Day Hour Lat. Long. Pressure (hPa) Wind (kt) Class Image Chart
1991 11 1 00 8.0 159.0 1006 0 2 Image Chart
1991 11 1 06 8.7 157.3 1004 0 2 Image Chart
1991 11 1 12 9.4 155.6 998 35 3 Image Chart
1991 11 1 18 10.0 154.3 994 40 3 Image Chart
1991 11 2 00 10.9 153.0 990 50 4 Image Chart
1991 11 2 06 11.8 151.9 980 55 4 Image Chart
1991 11 2 12 12.6 150.6 975 60 4 Image Chart
1991 11 2 18 13.4 149.5 965 70 5 Image Chart
1991 11 3 00 14.1 148.3 955 75 5 Image Chart
1991 11 3 06 14.7 147.3 950 80 5 Image Chart
1991 11 3 12 15.4 146.3 945 85 5 Image Chart
1991 11 3 18 16.0 145.1 935 95 5 Image Chart
1991 11 4 00 16.4 144.1 925 100 5 Image Chart
1991 11 4 06 16.9 143.0 925 100 5 Image Chart
1991 11 4 12 17.4 142.2 925 100 5 Image Chart
1991 11 4 18 17.9 141.4 925 100 5 Image Chart
1991 11 5 00 18.3 140.9 925 100 5 Image Chart
1991 11 5 06 18.8 140.3 930 95 5 Image Chart
1991 11 5 12 19.1 140.0 930 95 5 Image Chart
1991 11 5 18 19.4 139.7 930 95 5 Image Chart
1991 11 6 00 19.6 139.5 935 95 5 Image Chart
1991 11 6 06 19.7 139.3 940 90 5 Image Chart
1991 11 6 12 19.8 139.0 945 85 5 Image Chart
1991 11 6 18 19.8 138.7 950 80 5 Image Chart
1991 11 7 00 19.7 138.2 955 80 5 Image Chart
1991 11 7 06 19.6 137.7 955 80 5 Image Chart
1991 11 7 12 19.6 137.1 950 80 5 Image Chart
1991 11 7 18 19.6 136.4 945 85 5 Image Chart
1991 11 8 00 19.7 135.8 940 90 5 Image Chart
1991 11 8 06 19.7 135.2 940 90 5 Image Chart
1991 11 8 12 19.6 134.7 935 95 5 Image Chart
1991 11 8 18 19.4 134.1 930 95 5 Image Chart
1991 11 9 00 18.9 133.4 930 95 5 Image Chart
1991 11 9 06 18.7 132.6 930 95 5 Image Chart
1991 11 9 12 18.5 131.7 930 95 5 Image Chart
1991 11 9 18 18.4 130.8 930 95 5 Image Chart
1991 11 10 00 18.4 130.0 930 95 5 Image Chart
1991 11 10 06 18.4 129.2 930 95 5 Image Chart
1991 11 10 12 18.3 128.5 930 95 5 Image Chart
1991 11 10 18 18.2 127.9 930 95 5 Image Chart
1991 11 11 00 17.9 127.4 940 90 5 Image Chart
1991 11 11 06 17.6 126.9 945 85 5 Image Chart
1991 11 11 12 17.5 126.5 955 75 5 Image Chart
1991 11 11 18 17.4 126.0 965 70 5 Image Chart
1991 11 12 00 17.3 125.4 970 65 5 Image Chart
1991 11 12 06 17.2 124.6 980 55 4 Image Chart
1991 11 12 12 17.6 123.4 985 50 4 Image Chart
1991 11 12 18 18.3 122.4 990 45 3 Image Chart
1991 11 13 00 18.7 122.0 996 35 3 Image Chart
1991 11 13 06 19.0 121.4 1000 35 3 Image Chart
1991 11 13 12 19.1 120.9 1002 35 3 Image Chart
1991 11 13 18 19.0 120.3 1002 35 3 Image Chart
1991 11 14 00 18.8 119.9 1008 0 2 Image Chart
1991 11 14 06 18.0 119.5 1008 0 2 Image Chart
1991 11 14 12 17.0 118.8 1008 0 2 Image Chart
1991 11 14 18 16.0 118.0 1008 0 2 Image Chart
1991 11 15 00 15.0 116.5 1008 0 2 Image Chart
1991 11 15 06 14.5 115.0 1010 0 2 Image Chart
Japan Meteorological Agency Best Track Data | Correction Date : 1992-01-04
< Typhoon 199123 1991 Season Typhoon 199125 >

Help